createdAt,value
2023-02-11T00:03:45.966Z,103100.53
2023-02-11T00:08:49.070Z,103067.19
2023-02-11T00:13:52.805Z,103094.19
2023-02-11T00:18:56.121Z,103062.72
2023-02-11T00:24:02.154Z,103064.25
2023-02-11T00:29:06.116Z,103072.09
2023-02-11T00:34:09.149Z,103068.63
2023-02-11T00:39:12.181Z,103069.03
2023-02-11T00:44:18.354Z,103045.31
2023-02-11T00:49:24.044Z,103032.69
2023-02-11T00:54:29.887Z,103032.25
2023-02-11T00:59:33.069Z,103050.53
2023-02-11T01:04:37.660Z,103054.63
2023-02-11T01:09:40.760Z,103060.44
2023-02-11T01:14:44.633Z,103059.13
2023-02-11T01:19:50.621Z,103047.44
2023-02-11T01:24:53.675Z,103064.94
2023-02-11T01:29:56.866Z,103044.53
2023-02-11T01:35:00.161Z,103065.75
2023-02-11T01:40:07.982Z,103050.31
2023-02-11T01:45:41.741Z,103068.38
2023-02-11T01:50:47.781Z,103067.81
2023-02-11T01:56:11.634Z,103058.59
2023-02-11T02:01:20.487Z,103058.78
2023-02-11T02:06:31.390Z,103081.00
2023-02-11T02:11:34.387Z,103052.00
2023-02-11T02:16:38.954Z,103061.78
2023-02-11T02:22:14.583Z,103062.34
2023-02-11T02:27:32.937Z,103072.50
2023-02-11T02:32:42.300Z,103056.13
2023-02-11T02:38:06.206Z,103046.31
2023-02-11T02:43:11.473Z,103056.03
2023-02-11T02:48:26.871Z,103046.06
2023-02-11T02:54:25.117Z,103046.66
2023-02-11T03:00:00.301Z,103052.00
2023-02-11T03:05:18.816Z,103053.09
2023-02-11T03:10:24.411Z,103055.53
2023-02-11T03:15:31.273Z,103044.19
2023-02-11T03:20:37.730Z,103043.38
2023-02-11T03:25:53.529Z,103012.81
2023-02-11T03:31:15.457Z,103030.13
2023-02-11T03:36:34.730Z,103031.94
2023-02-11T03:41:39.537Z,103027.56
2023-02-11T03:46:48.655Z,103044.19
2023-02-11T03:51:53.981Z,103022.69
2023-02-11T03:56:59.822Z,103034.22
2023-02-11T04:02:02.910Z,103028.91
2023-02-11T04:07:05.942Z,103010.50
2023-02-11T04:12:09.157Z,103019.78
2023-02-11T04:17:14.570Z,102998.25
2023-02-11T04:22:17.552Z,103015.53
2023-02-11T04:27:20.591Z,103001.56
2023-02-11T04:32:24.041Z,103017.50
2023-02-11T04:37:26.983Z,103014.72
2023-02-11T04:42:30.057Z,103014.09
2023-02-11T04:47:33.032Z,103020.91
2023-02-11T04:52:36.091Z,102993.31
2023-02-11T04:57:39.115Z,102988.75
2023-02-11T05:02:42.200Z,102997.75
2023-02-11T05:07:45.186Z,102978.13
2023-02-11T05:12:49.628Z,102967.19
2023-02-11T05:17:53.748Z,102987.03
2023-02-11T05:22:56.797Z,102957.00
2023-02-11T05:27:59.874Z,102975.97
2023-02-11T05:33:02.935Z,102989.63
2023-02-11T05:38:06.034Z,102999.03
2023-02-11T05:43:09.943Z,102962.41
2023-02-11T05:48:13.074Z,103002.59
2023-02-11T05:53:18.778Z,102988.88
2023-02-11T05:58:22.011Z,103008.53
2023-02-11T06:03:25.123Z,102986.75
2023-02-11T06:08:28.192Z,102999.59
2023-02-11T06:13:31.234Z,102999.28
2023-02-11T06:18:34.366Z,103001.03
2023-02-11T06:23:38.171Z,102977.91
2023-02-11T06:28:42.114Z,102985.16
2023-02-11T06:33:45.319Z,103000.94
2023-02-11T06:38:49.441Z,102983.50
2023-02-11T06:43:53.266Z,102984.88
2023-02-11T06:48:57.261Z,102952.00
2023-02-11T06:54:00.304Z,102947.03
2023-02-11T06:59:03.794Z,102927.31
2023-02-11T07:04:08.424Z,102968.97
2023-02-11T07:09:11.474Z,102919.88
2023-02-11T07:14:14.640Z,102893.78
2023-02-11T07:19:17.962Z,102916.78
2023-02-11T07:24:21.192Z,102915.63
2023-02-11T07:29:24.248Z,102910.66
2023-02-11T07:34:27.353Z,102915.28
2023-02-11T07:39:30.423Z,102935.28
2023-02-11T07:44:34.727Z,102925.31
2023-02-11T07:49:37.774Z,102949.88
2023-02-11T07:54:41.047Z,102946.91
2023-02-11T07:59:44.265Z,102910.16
2023-02-11T08:04:47.783Z,102941.88
2023-02-11T08:09:50.823Z,102921.78
2023-02-11T08:14:54.092Z,102893.03
2023-02-11T08:19:57.164Z,102882.69
2023-02-11T08:25:00.410Z,102879.16
2023-02-11T08:30:04.007Z,102892.31
2023-02-11T08:35:08.480Z,102875.25
2023-02-11T08:40:11.726Z,102864.34
2023-02-11T08:45:15.779Z,102854.97
2023-02-11T08:50:18.982Z,102849.63
2023-02-11T08:55:22.061Z,102838.28
2023-02-11T09:00:27.933Z,102842.78
2023-02-11T09:05:30.936Z,102826.34
2023-02-11T09:10:34.930Z,102834.72
2023-02-11T09:15:38.482Z,102808.16
2023-02-11T09:20:43.843Z,102798.63
2023-02-11T09:25:46.972Z,102775.56
2023-02-11T09:30:50.482Z,102769.06
2023-02-11T09:35:53.731Z,102748.13
2023-02-11T09:40:59.861Z,102765.59
2023-02-11T09:46:03.475Z,102735.22
2023-02-11T09:51:13.346Z,102752.97
2023-02-11T09:56:16.570Z,102730.34
2023-02-11T10:01:55.257Z,102760.88
2023-02-11T10:07:03.901Z,102765.38
2023-02-11T10:12:19.596Z,102755.81
2023-02-11T10:17:44.403Z,102761.41
2023-02-11T10:22:56.114Z,102745.59
2023-02-11T10:28:01.762Z,102760.03
2023-02-11T10:33:21.673Z,102747.41
2023-02-11T10:38:25.284Z,102712.53
2023-02-11T10:43:31.162Z,102703.66
2023-02-11T10:48:53.013Z,102720.06
2023-02-11T10:54:04.954Z,102712.28
2023-02-11T10:59:14.988Z,102676.25
2023-02-11T11:04:30.194Z,102709.72
2023-02-11T11:10:03.935Z,102680.69
2023-02-11T11:15:22.373Z,102691.66
2023-02-11T11:20:35.693Z,102664.06
2023-02-11T11:25:41.920Z,102662.19
2023-02-11T11:30:45.013Z,102696.84
2023-02-11T11:36:13.902Z,102692.16
2023-02-11T11:41:27.425Z,102696.88
2023-02-11T11:46:40.843Z,102680.91
2023-02-11T11:51:46.037Z,102696.13
2023-02-11T11:57:00.274Z,102693.41
2023-02-11T12:02:42.995Z,102687.97
2023-02-11T12:08:08.770Z,102684.25
2023-02-11T12:13:33.253Z,102689.59
2023-02-11T12:19:10.516Z,102683.22
2023-02-11T12:24:27.830Z,102686.34
2023-02-11T12:30:08.963Z,102676.72
2023-02-11T12:35:33.645Z,102673.25
2023-02-11T12:40:56.100Z,102644.47
2023-02-11T12:46:30.782Z,102663.69
2023-02-11T12:51:45.771Z,102678.91
2023-02-11T12:57:02.635Z,102674.03
2023-02-11T13:02:22.217Z,102623.53
2023-02-11T13:07:45.484Z,102664.31
2023-02-11T13:13:10.452Z,102639.69
2023-02-11T13:18:30.702Z,102662.19
2023-02-11T13:23:42.149Z,102660.31
2023-02-11T13:29:20.785Z,102630.38
2023-02-11T13:34:44.343Z,102648.69
2023-02-11T13:40:01.946Z,102624.63
2023-02-11T13:45:19.145Z,102612.94
2023-02-11T13:50:25.377Z,102634.50
2023-02-11T13:55:29.681Z,102631.16
2023-02-11T14:00:35.599Z,102642.91
2023-02-11T14:05:57.121Z,102622.47
2023-02-11T14:11:24.161Z,102644.09
2023-02-11T14:16:37.610Z,102631.41
2023-02-11T14:21:44.702Z,102614.03
2023-02-11T14:26:52.020Z,102632.22
2023-02-11T14:32:38.359Z,102635.56
2023-02-11T14:37:50.614Z,102640.03
2023-02-11T14:42:55.783Z,102620.16
2023-02-11T14:48:08.582Z,102610.25
2023-02-11T14:53:17.802Z,102614.16
2023-02-11T14:58:26.821Z,102632.75
2023-02-11T15:03:41.196Z,102636.16
2023-02-11T15:08:48.762Z,102627.06
2023-02-11T15:13:54.974Z,102621.97
2023-02-11T15:19:03.207Z,102634.09
2023-02-11T15:24:33.107Z,102638.47
2023-02-11T15:29:43.130Z,102623.94
2023-02-11T15:34:49.387Z,102615.00
2023-02-11T15:39:54.110Z,102620.69
2023-02-11T15:45:16.979Z,102621.25
2023-02-11T15:50:29.476Z,102613.47
2023-02-11T15:55:33.255Z,102612.22
2023-02-11T16:00:45.938Z,102620.09
2023-02-11T16:05:49.197Z,102633.47
2023-02-11T16:11:03.501Z,102622.09
2023-02-11T16:16:26.237Z,102620.44
2023-02-11T16:21:35.585Z,102617.97
2023-02-11T16:26:43.449Z,102617.53
2023-02-11T16:31:48.700Z,102609.72
2023-02-11T16:36:53.132Z,102608.03
2023-02-11T16:41:56.524Z,102578.88
2023-02-11T16:47:01.494Z,102575.41
2023-02-11T16:52:09.577Z,102584.16
2023-02-11T16:57:16.707Z,102596.50
2023-02-11T17:02:31.488Z,102568.03
2023-02-11T17:07:34.516Z,102583.84
2023-02-11T17:12:37.531Z,102581.25
2023-02-11T17:17:40.558Z,102569.38
2023-02-11T17:22:43.724Z,102558.41
2023-02-11T17:27:50.684Z,102513.38
2023-02-11T17:32:55.520Z,102528.00
2023-02-11T17:37:59.551Z,102534.22
2023-02-11T17:43:02.804Z,102510.88
2023-02-11T17:48:06.022Z,102509.88
2023-02-11T17:53:09.194Z,102508.50
2023-02-11T17:58:12.268Z,102511.22
2023-02-11T18:03:15.339Z,102515.56
2023-02-11T18:08:18.808Z,102525.06
2023-02-11T18:13:22.018Z,102503.50
2023-02-11T18:18:25.172Z,102513.94
2023-02-11T18:23:29.012Z,102507.63
2023-02-11T18:28:32.041Z,102506.44
2023-02-11T18:33:39.491Z,102512.56
2023-02-11T18:38:44.714Z,102475.50
2023-02-11T18:43:47.790Z,102468.41
2023-02-11T18:48:55.568Z,102482.69
2023-02-11T18:54:01.445Z,102466.66
2023-02-11T18:59:04.987Z,102450.69
2023-02-11T19:04:08.364Z,102444.59
2023-02-11T19:09:14.946Z,102444.28
2023-02-11T19:14:38.980Z,102453.88
2023-02-11T19:19:42.114Z,102420.56
2023-02-11T19:24:46.574Z,102397.09
2023-02-11T19:29:49.717Z,102408.16
2023-02-11T19:34:55.750Z,102437.91
2023-02-11T19:39:58.793Z,102433.84
2023-02-11T19:45:01.791Z,102420.53
2023-02-11T19:50:06.558Z,102374.13
2023-02-11T19:55:09.663Z,102417.81
2023-02-11T20:00:13.411Z,102408.69
2023-02-11T20:05:18.286Z,102401.56
2023-02-11T20:10:21.287Z,102390.06
2023-02-11T20:15:24.300Z,102372.63
2023-02-11T20:20:27.363Z,102385.81
2023-02-11T20:25:30.443Z,102361.91
2023-02-11T20:30:33.614Z,102361.00
2023-02-11T20:35:36.996Z,102359.97
2023-02-11T20:40:40.075Z,102361.75
2023-02-11T20:45:43.109Z,102387.59
2023-02-11T20:50:48.317Z,102378.56
2023-02-11T20:55:51.698Z,102374.22
2023-02-11T21:00:54.930Z,102365.78
2023-02-11T21:06:01.056Z,102351.25
2023-02-11T21:11:04.452Z,102348.09
2023-02-11T21:16:09.930Z,102348.59
2023-02-11T21:21:13.012Z,102359.50
2023-02-11T21:26:17.527Z,102344.34
2023-02-11T21:31:27.274Z,102333.81
2023-02-11T21:36:31.371Z,102321.72
2023-02-11T21:41:34.412Z,102331.34
2023-02-11T21:46:37.638Z,102328.69
2023-02-11T21:51:40.758Z,102326.28
2023-02-11T21:56:43.752Z,102298.31
2023-02-11T22:01:49.491Z,102301.94
2023-02-11T22:06:53.239Z,102305.84
2023-02-11T22:11:56.602Z,102283.81
2023-02-11T22:17:02.439Z,102272.38
2023-02-11T22:22:08.698Z,102264.75
2023-02-11T22:27:12.656Z,102266.34
2023-02-11T22:32:18.095Z,102263.97
2023-02-11T22:37:21.271Z,102248.94
2023-02-11T22:42:24.264Z,102249.81
2023-02-11T22:47:28.003Z,102248.94
2023-02-11T22:52:31.084Z,102234.94
2023-02-11T22:57:34.110Z,102253.34
2023-02-11T23:02:37.231Z,102235.91
2023-02-11T23:07:40.240Z,102231.16
2023-02-11T23:12:43.311Z,102213.75
2023-02-11T23:17:46.369Z,102231.31
2023-02-11T23:22:49.712Z,102237.53
2023-02-11T23:27:52.772Z,102214.38
2023-02-11T23:32:55.758Z,102195.66
2023-02-11T23:37:58.872Z,102229.97
2023-02-11T23:43:04.480Z,102196.09
2023-02-11T23:48:07.555Z,102204.97
2023-02-11T23:53:11.578Z,102200.22
2023-02-11T23:58:15.288Z,102196.50
